地図

経路データ

SID SEASON NUMBER BASIN SUBBASIN NAME ISO_TIME NATURE LAT LON WMO_WIND WMO_PRES WMO_AGENCY TRACK_TYPE DIST2LAND LANDFALL IFLAG USA_AGENCY USA_ATCF_ID USA_LAT USA_LON USA_RECORD USA_STATUS USA_WIND USA_PRES USA_SSHS USA_R34_NE USA_R34_SE USA_R34_SW USA_R34_NW USA_R50_NE USA_R50_SE USA_R50_SW USA_R50_NW USA_R64_NE USA_R64_SE USA_R64_SW USA_R64_NW USA_POCI USA_ROCI USA_RMW USA_EYE TOKYO_LAT TOKYO_LON TOKYO_GRADE TOKYO_WIND TOKYO_PRES TOKYO_R50_DIR TOKYO_R50_LONG TOKYO_R50_SHORT TOKYO_R30_DIR TOKYO_R30_LONG TOKYO_R30_SHORT TOKYO_LAND CMA_LAT CMA_LON CMA_CAT CMA_WIND CMA_PRES HKO_LAT HKO_LON HKO_CAT HKO_WIND HKO_PRES NEWDELHI_LAT NEWDELHI_LON NEWDELHI_GRADE NEWDELHI_WIND NEWDELHI_PRES NEWDELHI_CI NEWDELHI_DP NEWDELHI_POCI REUNION_LAT REUNION_LON REUNION_TYPE REUNION_WIND REUNION_PRES REUNION_TNUM REUNION_CI REUNION_RMW REUNION_R34_NE REUNION_R34_SE REUNION_R34_SW REUNION_R34_NW REUNION_R50_NE REUNION_R50_SE REUNION_R50_SW REUNION_R50_NW REUNION_R64_NE REUNION_R64_SE REUNION_R64_SW REUNION_R64_NW BOM_LAT BOM_LON BOM_TYPE BOM_WIND BOM_PRES BOM_TNUM BOM_CI BOM_RMW BOM_R34_NE BOM_R34_SE BOM_R34_SW BOM_R34_NW BOM_R50_NE BOM_R50_SE BOM_R50_SW BOM_R50_NW BOM_R64_NE BOM_R64_SE BOM_R64_SW BOM_R64_NW BOM_ROCI BOM_POCI BOM_EYE BOM_POS_METHOD BOM_PRES_METHOD NADI_LAT NADI_LON NADI_CAT NADI_WIND NADI_PRES WELLINGTON_LAT WELLINGTON_LON WELLINGTON_WIND WELLINGTON_PRES DS824_LAT DS824_LON DS824_STAGE DS824_WIND DS824_PRES TD9636_LAT TD9636_LON TD9636_STAGE TD9636_WIND TD9636_PRES TD9635_LAT TD9635_LON TD9635_WIND TD9635_PRES TD9635_ROCI NEUMANN_LAT NEUMANN_LON NEUMANN_CLASS NEUMANN_WIND NEUMANN_PRES MLC_LAT MLC_LON MLC_CLASS MLC_WIND MLC_PRES USA_GUST BOM_GUST BOM_GUST_PER REUNION_GUST REUNION_GUST_PER USA_SEAHGT USA_SEARAD_NE USA_SEARAD_SE USA_SEARAD_SW USA_SEARAD_NW STORM_SPEED STORM_DIR
1977264N14236 1977 88 EP MM FLORENCE 1977-09-20 12:00:00 TS 13.9000 -124.200 25 hurdat_epa main 1750 1742 O________O____ hurdat_epa EP061977 13.9000 -124.200 TD 25 -1 13.9000 -124.200 TC 25 2 351
1977264N14236 1977 88 EP MM FLORENCE 1977-09-20 15:00:00 TS 13.9875 -124.215 main 1742 1742 P________P____ EP061977 13.9875 -124.215 TD 25 -1 13.9875 -124.215 TC 25 2 334
1977264N14236 1977 88 EP MM FLORENCE 1977-09-20 18:00:00 TS 14.0846 -124.292 25 hurdat_epa main 1742 1741 O________OO___ hurdat_epa EP061977 14.1000 -124.300 TD 25 -1 14.1000 -124.300 TC 25 13.9000 -124.200 1 25 4 312
1977264N14236 1977 88 EP MM FLORENCE 1977-09-20 21:00:00 TS 14.2412 -124.503 main 1749 1741 P________PP___ EP061977 14.2500 -124.505 TD 30 -1 14.2500 -124.505 TC 30 14.1705 -124.490 1 27 6 303
1977264N14236 1977 88 EP MM FLORENCE 1977-09-21 00:00:00 TS 14.4000 -124.800 35 hurdat_epa main 1757 1757 O________OO___ hurdat_epa EP061977 14.4000 -124.800 TS 35 0 14.4000 -124.800 TC 35 14.4000 -124.800 1 30 7 294
1977264N14236 1977 88 EP MM FLORENCE 1977-09-21 03:00:00 TS 14.5121 -125.131 main 1773 1773 P________PP___ EP061977 14.5000 -125.128 TS 37 0 14.5000 -125.128 TC 37 14.5604 -125.146 1 30 7 287
1977264N14236 1977 88 EP MM FLORENCE 1977-09-21 06:00:00 TS 14.6148 -125.504 40 hurdat_epa main 1797 1797 O________OP___ hurdat_epa EP061977 14.6000 -125.500 TS 40 0 14.6000 -125.500 TC 40 14.6739 -125.520 1 30 8 288
1977264N14236 1977 88 EP MM FLORENCE 1977-09-21 09:00:00 TS 14.7551 -125.908 main 1815 1815 P________PP___ EP061977 14.7500 -125.907 TS 42 0 14.7500 -125.907 TC 42 14.7754 -125.909 1 30 8 290
1977264N14236 1977 88 EP MM FLORENCE 1977-09-21 12:00:00 TS 14.9000 -126.300 45 hurdat_epa main 1841 1841 O________OO___ hurdat_epa EP061977 14.9000 -126.300 TS 45 0 14.9000 -126.300 TC 45 14.9000 -126.300 1 30 7 289
1977264N14236 1977 88 EP MM FLORENCE 1977-09-21 15:00:00 TS 14.9911 -126.622 main 1857 1857 P________PP___ EP061977 14.9698 -126.593 TS 50 0 14.9698 -126.593 TC 50 15.0763 -126.740 1 38 7 291
1977264N14236 1977 88 EP MM FLORENCE 1977-09-21 18:00:00 TS 15.1366 -126.954 55 hurdat_epa main 1875 1865 O________OP___ hurdat_epa EP061977 15.1000 -126.900 TS 55 0 15.1000 -126.900 TC 55 15.2830 -127.169 1 47 9 301
1977264N14236 1977 88 EP MM FLORENCE 1977-09-21 21:00:00 TS 15.4408 -127.406 main 1877 1868 P________PP___ EP061977 15.4202 -127.372 TS 60 0 15.4202 -127.372 TC 60 15.5232 -127.539 1 56 11 309
1977264N14236 1977 88 EP MM FLORENCE 1977-09-22 00:00:00 TS 15.8000 -127.800 65 hurdat_epa main 1872 1862 O________OO___ hurdat_epa EP061977 15.8000 -127.800 HU 65 1 15.8000 -127.800 TC 65 15.8000 -127.800 4 65 9 317
1977264N14236 1977 88 EP MM FLORENCE 1977-09-22 03:00:00 TS 16.0893 -128.026 main 1862 1845 P________PP___ EP061977 16.0923 -128.048 HU 67 1 16.0923 -128.048 TC 67 16.0770 -127.938 4 67 7 336
1977264N14236 1977 88 EP MM FLORENCE 1977-09-22 06:00:00 TS 16.3989 -128.072 70 hurdat_epa main 1845 1799 O________OP___ hurdat_epa EP061977 16.4000 -128.100 HU 70 1 16.4000 -128.100 TC 70 16.3943 -127.959 4 70 7 7
1977264N14236 1977 88 EP MM FLORENCE 1977-09-22 09:00:00 TS 16.7869 -127.937 main 1799 1752 P________PP___ EP061977 16.7925 -127.953 HU 75 1 16.7925 -127.953 TC 75 16.7645 -127.875 4 72 9 24
1977264N14236 1977 88 EP MM FLORENCE 1977-09-22 12:00:00 TS 17.2000 -127.700 80 hurdat_epa main 1752 1713 O________OO___ hurdat_epa EP061977 17.2000 -127.700 HU 80 1 17.2000 -127.700 TC 80 17.2000 -127.700 4 75 8 28
1977264N14236 1977 88 EP MM FLORENCE 1977-09-22 15:00:00 TS 17.5226 -127.524 main 1713 1667 P________PP___ EP061977 17.4898 -127.537 HU 85 2 17.4898 -127.537 TC 85 17.6538 -127.473 4 78 9 28
1977264N14236 1977 88 EP MM FLORENCE 1977-09-22 18:00:00 TS 17.9556 -127.272 90 hurdat_epa main 1660 1583 O________OP___ hurdat_epa EP061977 17.9000 -127.300 HU 90 2 17.9000 -127.300 TC 90 18.1780 -127.161 4 82 13 29
1977264N14236 1977 88 EP MM FLORENCE 1977-09-22 21:00:00 TS 18.6518 -126.863 main 1576 1477 P________PP___ EP061977 18.6177 -126.880 HU 85 2 18.6177 -126.880 TC 85 18.7882 -126.794 4 86 18 28
1977264N14236 1977 88 EP MM FLORENCE 1977-09-23 00:00:00 TS 19.5000 -126.400 80 hurdat_epa main 1477 1388 O________OO___ hurdat_epa EP061977 19.5000 -126.400 HU 80 1 19.5000 -126.400 TC 80 19.5000 -126.400 4 90 19 25
1977264N14236 1977 88 EP MM FLORENCE 1977-09-23 03:00:00 TS 20.3724 -126.001 main 1381 1294 P________PP___ EP061977 20.3774 -125.992 HU 75 1 20.3774 -125.992 TC 75 20.3526 -126.038 4 82 20 22
1977264N14236 1977 88 EP MM FLORENCE 1977-09-23 06:00:00 TS 21.2994 -125.610 70 hurdat_epa main 1287 1196 O________OP___ hurdat_epa EP061977 21.3000 -125.600 HU 70 1 21.3000 -125.600 TC 70 21.2972 -125.652 4 75 20 21
1977264N14236 1977 88 EP MM FLORENCE 1977-09-23 09:00:00 TS 22.2655 -125.220 main 1190 1103 P________PP___ EP061977 22.2648 -125.214 HU 65 1 22.2648 -125.214 TC 65 22.2682 -125.240 4 67 21 22
1977264N14236 1977 88 EP MM FLORENCE 1977-09-23 12:00:00 TS 23.2000 -124.800 60 hurdat_epa main 1103 1017 O________OO___ hurdat_epa EP061977 23.2000 -124.800 TS 60 0 23.2000 -124.800 TC 60 23.2000 -124.800 2 60 20 25
1977264N14236 1977 88 EP MM FLORENCE 1977-09-23 15:00:00 TS 24.0384 -124.318 main 1017 934 P________PP___ EP061977 24.0374 -124.315 TS 47 0 24.0374 -124.315 TC 47 24.0424 -124.330 2 52 18 30
1977264N14236 1977 88 EP MM FLORENCE 1977-09-23 18:00:00 TS 24.8010 -123.806 35 hurdat_epa main 934 860 O________OP___ hurdat_epa EP061977 24.8000 -123.800 TS 35 0 24.8000 -123.800 TC 35 24.8061 -123.836 2 45 18 33
1977264N14236 1977 88 EP MM FLORENCE 1977-09-23 21:00:00 TS 25.5487 -123.256 main 860 790 P________PP___ EP061977 25.5527 -123.248 TS 30 -1 25.5527 -123.248 TC 30 25.5168 -123.324 2 37 17 33
1977264N14236 1977 88 EP MM FLORENCE 1977-09-24 00:00:00 TS 26.2000 -122.800 25 hurdat_epa main 790 754 O________OO___ hurdat_epa EP061977 26.2000 -122.800 TD 25 -1 26.2000 -122.800 TC 25 26.2000 -122.800 1 30 13 27
1977264N14236 1977 88 EP MM FLORENCE 1977-09-24 03:00:00 TS 26.7322 -122.589 main 754 724 P________P____ EP061977 26.7322 -122.589 TD 25 -1 26.7322 -122.589 TC 25 1 9 17
1977264N14236 1977 88 EP MM FLORENCE 1977-09-24 06:00:00 TS 27.1000 -122.500 25 hurdat_epa main 724 705 O________O____ hurdat_epa EP061977 27.1000 -122.500 TD 25 -1 27.1000 -122.500 TC 25 1 6 16
1977264N14236 1977 88 EP MM FLORENCE 1977-09-24 09:00:00 TS 27.2976 -122.408 main 705 692 P________P____ EP061977 27.2976 -122.408 TD 25 -1 27.2976 -122.408 TC 25 1 3 30
1977264N14236 1977 88 EP MM FLORENCE 1977-09-24 12:00:00 ET 27.4000 -122.300 25 hurdat_epa main 692 O________O____ hurdat_epa EP061977 27.4000 -122.300 ET 25 -4 27.4000 -122.300 25 3 44

IBTrACS Databaseについて

本データベースは、米国NOAAが公開する1842年以降の世界の熱帯低気圧のベストトラックデータアーカイブInternational Best Track Archive for Climate Stewardship (IBTrACS)を、ウェブで閲覧しやすい形式に変換したものです。

最終更新日:2021-11-26